Time;durP1;ratioP1;P1;durP2;ratioP2;P2;SDS_P1;SDS_P2;PMS_P1;PMS_P2;Temp;Humidity;BMP_temperature;BMP_pressure;BME280_temperature;BME280_humidity;BME280_pressure;Samples;Min_cycle;Max_cycle;Signal;HPM_P1;HPM_P2
2022/12/30 00:01:15;;;;;;;60.00;26.60;;;8.50;79.60;;;;;;5075349;28;20178;-74
2022/12/30 00:03:40;;;;;;;54.97;25.80;;;8.50;79.40;;;;;;5069186;28;20187;-75
2022/12/30 00:06:14;;;;;;;57.87;26.20;;;8.50;79.10;;;;;;5076365;28;20192;-75
2022/12/30 00:08:47;;;;;;;45.80;26.30;;;8.50;80.50;;;;;;5075490;28;20180;-75
2022/12/30 00:11:17;;;;;;;49.43;26.03;;;8.50;80.20;;;;;;5073771;28;20171;-75
2022/12/30 00:33:43;;;;;;;50.87;26.50;;;8.40;79.20;;;;;;5074097;28;20194;-75
2022/12/30 00:36:08;;;;;;;41.67;23.87;;;8.40;79.20;;;;;;5053659;28;20930;-75
2022/12/30 00:38:34;;;;;;;49.87;23.80;;;8.40;79.90;;;;;;5070945;28;20218;-74
2022/12/30 00:43:44;;;;;;;47.80;25.27;;;8.40;80.00;;;;;;5069592;28;20244;-75
2022/12/30 00:46:11;;;;;;;44.20;21.87;;;8.40;79.30;;;;;;5072821;28;20170;-74
2022/12/30 00:56:49;;;;;;;43.57;23.47;;;8.30;79.40;;;;;;5076199;28;20182;-75
2022/12/30 00:59:15;;;;;;;44.83;23.33;;;8.30;79.10;;;;;;5072937;28;20214;-74
2022/12/30 01:01:41;;;;;;;58.03;23.00;;;8.30;79.80;;;;;;5072684;28;20189;-75
2022/12/30 01:04:06;;;;;;;39.00;22.20;;;8.30;79.70;;;;;;5071171;28;20258;-74
2022/12/30 01:06:32;;;;;;;46.70;23.30;;;8.30;79.60;;;;;;5074331;28;20175;-74
2022/12/30 01:08:58;;;;;;;49.83;23.63;;;8.30;79.40;;;;;;5076462;28;20190;-74
2022/12/30 01:11:23;;;;;;;43.43;23.80;;;8.30;80.10;;;;;;5073604;28;20179;-74
2022/12/30 01:13:49;;;;;;;53.10;23.93;;;8.30;79.40;;;;;;5074438;28;20189;-75
2022/12/30 01:16:17;;;;;;;46.00;24.70;;;8.30;79.60;;;;;;5071179;28;20233;-75
2022/12/30 01:18:43;;;;;;;51.47;23.27;;;8.30;79.50;;;;;;5055547;28;20710;-75
2022/12/30 01:21:09;;;;;;;45.50;24.50;;;8.20;79.40;;;;;;5075158;28;20672;-75
2022/12/30 01:23:35;;;;;;;46.40;24.10;;;8.20;79.30;;;;;;5078077;28;20227;-75
2022/12/30 01:26:03;;;;;;;46.23;23.87;;;8.20;79.60;;;;;;5070459;28;20218;-75
2022/12/30 01:28:33;;;;;;;46.60;23.63;;;8.20;79.70;;;;;;5075295;28;20243;-73
2022/12/30 01:31:00;;;;;;;41.67;22.30;;;8.20;79.50;;;;;;5073201;28;20194;-74
2022/12/30 01:33:26;;;;;;;54.30;21.23;;;8.20;80.30;;;;;;5076412;28;20239;-74
2022/12/30 01:35:52;;;;;;;48.10;22.13;;;8.20;79.60;;;;;;5074762;28;20197;-74
2022/12/30 01:38:18;;;;;;;38.13;20.23;;;8.20;79.60;;;;;;5077095;28;20206;-75
2022/12/30 01:40:44;;;;;;;42.50;21.67;;;8.20;79.90;;;;;;5074472;28;20175;-75
2022/12/30 01:43:11;;;;;;;39.00;21.77;;;8.20;80.10;;;;;;5072317;28;20187;-74
2022/12/30 01:45:37;;;;;;;38.40;19.83;;;8.20;80.40;;;;;;5072003;28;20182;-74
2022/12/30 01:48:18;;;;;;;37.50;21.50;;;8.20;81.30;;;;;;5076392;28;20181;-74
2022/12/30 01:50:50;;;;;;;47.53;21.93;;;8.10;80.60;;;;;;5073443;28;20613;-74
2022/12/30 01:53:37;;;;;;;46.27;22.10;;;8.10;80.30;;;;;;5079723;28;20271;-74
2022/12/30 01:56:09;;;;;;;44.00;20.70;;;8.10;80.40;;;;;;5068916;28;21723;-74
2022/12/30 01:59:13;;;;;;;42.80;20.63;;;8.00;80.20;;;;;;5072839;28;20350;-74
2022/12/30 02:01:39;;;;;;;43.83;20.37;;;8.00;80.10;;;;;;5029547;28;20979;-74
2022/12/30 02:04:09;;;;;;;42.87;21.13;;;8.00;80.00;;;;;;5035919;28;20199;-73
2022/12/30 02:06:43;;;;;;;42.20;21.27;;;8.00;79.90;;;;;;5033309;28;20620;-72
2022/12/30 02:09:09;;;;;;;37.37;19.37;;;8.00;80.80;;;;;;5030191;28;20298;-74
2022/12/30 02:11:35;;;;;;;45.70;20.17;;;7.90;80.70;;;;;;5033133;28;20262;-74
2022/12/30 02:14:02;;;;;;;37.50;20.23;;;7.90;80.40;;;;;;5029900;28;20211;-74
2022/12/30 02:16:39;;;;;;;39.87;20.03;;;7.90;80.40;;;;;;5028128;28;20197;-74
2022/12/30 02:19:26;;;;;;;31.97;18.30;;;7.90;80.40;;;;;;5030659;28;20273;-74
2022/12/30 02:22:43;;;;;;;31.30;17.97;;;7.90;80.20;;;;;;5029343;28;20188;-74
2022/12/30 02:25:26;;;;;;;39.97;18.90;;;7.90;80.80;;;;;;4993370;28;20198;-74
2022/12/30 02:28:22;;;;;;;34.33;18.27;;;7.90;81.00;;;;;;4992799;28;20201;-74
2022/12/30 02:30:56;;;;;;;37.90;17.67;;;7.80;80.90;;;;;;4994090;28;20275;-74
2022/12/30 02:33:51;;;;;;;36.27;18.20;;;7.80;80.90;;;;;;4992933;28;20176;-74
2022/12/30 02:36:29;;;;;;;38.90;16.00;;;7.80;81.00;;;;;;5010863;28;20205;-75
2022/12/30 02:39:11;;;;;;;26.40;15.73;;;7.70;80.80;;;;;;5005210;28;21168;-74
2022/12/30 02:44:48;;;;;;;33.57;16.67;;;7.70;80.90;;;;;;5014200;28;20190;-74
2022/12/30 02:47:23;;;;;;;42.77;16.87;;;7.70;81.70;;;;;;4992427;28;20284;-75
2022/12/30 02:52:41;;;;;;;34.20;17.43;;;7.60;81.30;;;;;;5007255;28;20196;-74
2022/12/30 02:55:07;;;;;;;26.90;15.10;;;7.60;81.60;;;;;;5008621;28;20192;-74
2022/12/30 02:57:34;;;;;;;31.87;16.53;;;7.60;81.50;;;;;;5012317;28;20188;-74
2022/12/30 03:06:11;;;;;;;32.33;15.80;;;7.40;81.80;;;;;;5074239;28;20182;-75
2022/12/30 03:09:14;;;;;;;29.50;15.00;;;7.40;81.50;;;;;;5074345;28;20182;-74
2022/12/30 03:11:58;;;;;;;24.00;13.97;;;7.30;81.50;;;;;;5027322;28;20302;-73
2022/12/30 03:14:39;;;;;;;28.07;14.90;;;7.30;81.60;;;;;;5029095;28;20783;-74
2022/12/30 03:17:26;;;;;;;27.57;14.40;;;7.20;81.90;;;;;;5025661;28;20195;-74
2022/12/30 03:19:56;;;;;;;27.23;13.67;;;7.10;81.60;;;;;;5031201;28;20219;-74
2022/12/30 03:27:58;;;;;;;26.87;14.60;;;6.90;81.60;;;;;;5034081;28;20230;-74
2022/12/30 03:30:24;;;;;;;25.83;14.10;;;6.90;82.30;;;;;;5030047;28;20192;-74
2022/12/30 03:32:50;;;;;;;23.73;13.60;;;6.90;82.50;;;;;;5028798;28;20199;-73
2022/12/30 03:35:18;;;;;;;28.70;13.57;;;6.80;82.50;;;;;;5030543;28;20733;-74
2022/12/30 03:37:52;;;;;;;25.53;13.40;;;6.80;82.50;;;;;;5034913;28;20188;-73
2022/12/30 03:40:28;;;;;;;28.27;14.00;;;6.80;82.60;;;;;;5031541;28;20196;-73
2022/12/30 03:42:54;;;;;;;27.23;13.73;;;6.70;83.00;;;;;;5028537;28;20230;-73
2022/12/30 03:45:21;;;;;;;31.90;15.63;;;6.70;83.10;;;;;;5030708;28;20195;-74
2022/12/30 03:47:46;;;;;;;27.83;13.97;;;6.70;82.90;;;;;;5034645;28;20198;-75
2022/12/30 03:50:13;;;;;;;35.23;15.50;;;6.70;83.10;;;;;;5074912;28;20557;-74
2022/12/30 03:52:38;;;;;;;31.33;15.90;;;6.60;83.10;;;;;;5071710;28;20183;-75
2022/12/30 03:55:05;;;;;;;32.10;15.43;;;6.60;83.40;;;;;;5077009;28;21076;-74
2022/12/30 03:57:30;;;;;;;29.33;15.70;;;6.60;83.20;;;;;;5076705;28;20194;-73
2022/12/30 03:59:56;;;;;;;29.53;15.57;;;6.60;83.60;;;;;;5073670;28;20246;-73
2022/12/30 04:02:22;;;;;;;28.67;15.40;;;6.60;83.80;;;;;;5073245;28;20205;-74
2022/12/30 04:04:47;;;;;;;26.83;14.53;;;6.60;83.90;;;;;;5078261;28;20216;-74
2022/12/30 04:07:13;;;;;;;42.47;17.30;;;6.60;83.90;;;;;;5076206;28;20229;-74
2022/12/30 04:09:39;;;;;;;29.50;15.07;;;6.60;83.50;;;;;;5078989;28;20185;-74
2022/12/30 04:12:05;;;;;;;30.27;15.30;;;6.60;83.80;;;;;;5073686;28;20180;-74
2022/12/30 04:14:30;;;;;;;28.23;15.63;;;6.60;84.30;;;;;;5074918;28;20688;-74
2022/12/30 04:16:56;;;;;;;38.47;17.30;;;6.60;83.70;;;;;;5075416;28;20726;-74
2022/12/30 04:19:22;;;;;;;31.50;15.87;;;6.60;83.60;;;;;;5074385;28;20218;-74
2022/12/30 04:21:47;;;;;;;37.53;16.73;;;6.60;83.30;;;;;;5077380;28;20181;-74
2022/12/30 04:24:13;;;;;;;29.93;15.53;;;6.50;83.20;;;;;;5069030;28;20182;-74
2022/12/30 04:26:41;;;;;;;34.70;15.93;;;6.60;83.80;;;;;;5073572;28;20176;-74
2022/12/30 04:29:07;;;;;;;32.37;15.33;;;6.60;83.70;;;;;;5071033;28;21771;-74
2022/12/30 04:31:33;;;;;;;29.40;15.73;;;6.60;83.90;;;;;;5075853;28;20227;-74
2022/12/30 04:33:58;;;;;;;28.70;15.27;;;6.60;84.30;;;;;;5073241;28;20179;-74
2022/12/30 04:36:24;;;;;;;31.47;16.57;;;6.70;84.70;;;;;;5077798;28;20182;-74
2022/12/30 04:38:50;;;;;;;30.63;16.63;;;6.60;84.30;;;;;;5072908;28;20789;-72
2022/12/30 04:41:17;;;;;;;30.23;15.57;;;6.60;84.30;;;;;;5075729;28;20179;-73
2022/12/30 04:43:43;;;;;;;28.07;14.57;;;6.60;83.90;;;;;;5056805;28;20190;-73
2022/12/30 04:46:09;;;;;;;25.40;14.50;;;6.60;84.00;;;;;;5075556;28;20189;-73
2022/12/30 04:48:35;;;;;;;27.10;14.60;;;6.50;84.20;;;;;;5072474;28;20675;-73
2022/12/30 04:51:00;;;;;;;22.47;13.80;;;6.50;84.20;;;;;;5075334;28;20175;-73
2022/12/30 04:53:26;;;;;;;33.97;14.20;;;6.50;84.20;;;;;;5073852;28;20197;-74
2022/12/30 04:55:53;;;;;;;27.83;14.07;;;6.40;84.20;;;;;;5074215;28;20217;-74
2022/12/30 04:58:19;;;;;;;25.97;14.50;;;6.40;84.00;;;;;;5072218;28;20233;-74
2022/12/30 05:00:47;;;;;;;22.60;13.87;;;6.30;84.10;;;;;;5072742;28;20201;-75
2022/12/30 05:03:13;;;;;;;25.10;14.40;;;6.30;84.20;;;;;;5077723;28;20190;-73
2022/12/30 05:05:38;;;;;;;26.10;13.97;;;6.30;84.10;;;;;;5076280;28;20182;-76
2022/12/30 05:08:04;;;;;;;26.23;14.17;;;6.20;84.20;;;;;;5074888;28;20329;-73
2022/12/30 05:10:32;;;;;;;26.77;14.23;;;6.20;84.30;;;;;;5075300;28;20186;-75
2022/12/30 05:12:58;;;;;;;27.57;15.03;;;6.20;84.60;;;;;;5076664;28;20202;-74
2022/12/30 05:15:23;;;;;;;25.27;13.30;;;6.20;84.50;;;;;;5071824;28;20206;-74
2022/12/30 05:17:49;;;;;;;28.03;14.60;;;6.10;84.40;;;;;;5076546;28;20715;-75
2022/12/30 05:20:15;;;;;;;21.43;13.27;;;6.10;84.40;;;;;;5072701;28;21506;-74
2022/12/30 05:22:40;;;;;;;25.70;14.60;;;6.10;84.50;;;;;;5073982;28;20256;-74
2022/12/30 05:27:50;;;;;;;28.40;14.40;;;6.00;84.50;;;;;;5071570;28;20570;-74
2022/12/30 05:30:17;;;;;;;26.57;13.93;;;6.00;84.80;;;;;;5072854;28;20179;-73
2022/12/30 05:32:43;;;;;;;24.47;13.40;;;6.00;84.80;;;;;;5060486;28;20194;-74
2022/12/30 05:35:08;;;;;;;26.63;13.40;;;6.00;85.10;;;;;;5077209;28;20201;-74
2022/12/30 05:37:34;;;;;;;36.63;14.60;;;6.00;85.00;;;;;;5078848;28;20183;-74
2022/12/30 05:40:00;;;;;;;24.13;14.23;;;5.90;85.20;;;;;;5072473;28;20604;-74
2022/12/30 05:42:25;;;;;;;27.50;14.93;;;5.90;85.30;;;;;;5075957;28;20555;-74
2022/12/30 05:44:51;;;;;;;30.67;13.67;;;5.90;84.90;;;;;;5073223;28;20181;-73
2022/12/30 05:47:17;;;;;;;29.40;14.10;;;5.90;85.80;;;;;;5076477;28;20270;-74
2022/12/30 05:49:42;;;;;;;27.43;14.20;;;5.90;85.60;;;;;;5070799;28;20187;-75
2022/12/30 05:52:08;;;;;;;25.60;14.23;;;5.80;85.90;;;;;;5073031;28;20249;-75
2022/12/30 05:54:34;;;;;;;30.40;14.77;;;5.80;85.30;;;;;;5073488;28;20182;-75
2022/12/30 05:56:59;;;;;;;23.40;14.43;;;5.70;85.30;;;;;;5075640;28;20207;-75
2022/12/30 05:59:25;;;;;;;30.07;15.10;;;5.70;85.20;;;;;;5076271;28;20210;-74
2022/12/30 06:01:50;;;;;;;27.57;14.33;;;5.70;85.40;;;;;;5071057;28;20206;-75
2022/12/30 06:04:17;;;;;;;26.17;14.70;;;5.70;85.50;;;;;;5074973;28;20190;-75
2022/12/30 06:06:43;;;;;;;31.17;15.33;;;5.60;85.30;;;;;;5055735;28;20269;-76
2022/12/30 06:09:09;;;;;;;28.67;15.27;;;5.60;85.20;;;;;;5073552;28;20269;-74
2022/12/30 06:11:35;;;;;;;31.33;14.83;;;5.60;85.30;;;;;;5053305;28;20186;-74
2022/12/30 06:14:00;;;;;;;33.57;15.13;;;5.60;85.40;;;;;;5074304;28;20238;-73
2022/12/30 06:16:26;;;;;;;23.30;14.10;;;5.60;86.40;;;;;;5073228;28;20191;-75
2022/12/30 06:18:52;;;;;;;27.27;14.67;;;5.60;86.10;;;;;;5075505;28;20305;-75
2022/12/30 06:21:17;;;;;;;25.93;13.20;;;5.60;86.30;;;;;;5068894;28;20178;-74
2022/12/30 06:23:43;;;;;;;31.97;15.33;;;5.70;86.60;;;;;;5074066;28;20266;-73
2022/12/30 06:26:09;;;;;;;27.43;15.57;;;5.70;86.40;;;;;;5072416;28;20321;-74
2022/12/30 06:28:34;;;;;;;31.00;13.60;;;5.70;86.50;;;;;;5073510;28;20680;-75
2022/12/30 06:31:00;;;;;;;26.17;13.90;;;5.70;87.00;;;;;;5072267;28;20182;-74
2022/12/30 06:33:25;;;;;;;26.20;14.47;;;5.70;86.70;;;;;;5073674;28;20182;-75
2022/12/30 06:35:52;;;;;;;24.63;14.57;;;5.70;86.90;;;;;;5073390;28;20674;-75
2022/12/30 06:38:18;;;;;;;27.90;15.00;;;5.80;86.80;;;;;;5074090;28;20536;-75
2022/12/30 06:40:44;;;;;;;24.17;15.20;;;5.80;87.00;;;;;;5073941;28;20194;-75
2022/12/30 06:43:10;;;;;;;25.47;13.93;;;5.80;87.10;;;;;;5073565;28;20187;-74
2022/12/30 06:45:36;;;;;;;31.77;14.93;;;5.90;87.20;;;;;;5071017;28;20727;-74
2022/12/30 06:48:03;;;;;;;27.87;14.47;;;5.90;87.30;;;;;;5069371;28;20174;-75
2022/12/30 06:50:29;;;;;;;22.57;14.17;;;5.90;87.40;;;;;;5073637;28;20185;-74
2022/12/30 06:52:54;;;;;;;28.27;14.07;;;6.00;87.50;;;;;;5069488;28;20182;-75
2022/12/30 06:55:21;;;;;;;25.83;14.43;;;6.10;87.50;;;;;;5073042;28;20193;-75
2022/12/30 06:57:48;;;;;;;27.53;14.30;;;6.20;87.90;;;;;;5073509;28;20170;-75
2022/12/30 07:00:14;;;;;;;25.23;14.07;;;6.30;88.20;;;;;;5075705;28;20217;-74
2022/12/30 07:02:40;;;;;;;32.23;14.73;;;6.50;88.70;;;;;;5079753;28;20347;-74
2022/12/30 07:05:06;;;;;;;31.43;15.60;;;6.70;89.30;;;;;;5072158;28;20273;-76
2022/12/30 07:07:32;;;;;;;37.63;16.80;;;7.00;89.50;;;;;;5077468;28;20183;-75
2022/12/30 07:09:58;;;;;;;35.57;17.17;;;7.40;89.60;;;;;;5077647;28;20179;-74
2022/12/30 07:12:23;;;;;;;29.63;16.03;;;7.70;89.40;;;;;;5078173;28;20882;-74
2022/12/30 07:14:49;;;;;;;32.30;16.77;;;8.00;88.50;;;;;;5076181;28;20178;-75
2022/12/30 07:17:15;;;;;;;29.50;16.13;;;8.30;88.10;;;;;;5076042;28;20265;-76
2022/12/30 07:19:40;;;;;;;30.10;16.60;;;8.60;87.70;;;;;;5077880;28;20234;-75
2022/12/30 07:22:06;;;;;;;31.27;17.70;;;8.90;87.30;;;;;;5076949;28;20187;-75
2022/12/30 07:24:32;;;;;;;30.03;17.33;;;9.20;86.80;;;;;;5076795;28;20175;-75
2022/12/30 07:26:57;;;;;;;28.77;16.27;;;9.50;86.00;;;;;;5081379;28;20261;-76
2022/12/30 07:29:23;;;;;;;27.48;16.98;;;9.90;85.60;;;;;;5073822;28;20190;-75
2022/12/30 07:31:49;;;;;;;30.35;16.90;;;10.20;84.40;;;;;;5079807;28;20178;-74
2022/12/30 07:34:14;;;;;;;32.97;17.08;;;10.60;84.30;;;;;;5076282;28;20171;-74
2022/12/30 07:36:40;;;;;;;33.97;17.73;;;11.00;83.70;;;;;;5075800;28;20243;-76
2022/12/30 07:39:06;;;;;;;31.30;17.67;;;11.40;82.70;;;;;;5072164;28;20230;-74
2022/12/30 07:41:33;;;;;;;35.65;19.20;;;11.80;81.80;;;;;;5061902;28;20193;-75
2022/12/30 07:43:59;;;;;;;33.20;20.23;;;12.10;80.50;;;;;;5074872;28;20209;-75
2022/12/30 07:46:25;;;;;;;34.28;18.40;;;12.50;79.30;;;;;;5076529;28;20179;-77
2022/12/30 07:48:50;;;;;;;33.53;19.25;;;12.80;79.30;;;;;;5074590;28;20190;-76
2022/12/30 07:51:17;;;;;;;37.05;19.63;;;13.20;78.60;;;;;;5076452;28;20186;-76
2022/12/30 07:53:43;;;;;;;34.28;18.67;;;13.60;78.60;;;;;;5074029;28;20246;-76
2022/12/30 07:56:12;;;;;;;36.88;21.88;;;13.90;76.60;;;;;;5073746;28;20171;-74
2022/12/30 07:58:38;;;;;;;38.38;22.08;;;14.30;74.90;;;;;;5072226;28;20215;-75
2022/12/30 08:01:12;;;;;;;37.65;21.90;;;14.50;73.50;;;;;;5073198;28;20179;-75
2022/12/30 08:03:38;;;;;;;35.72;20.40;;;14.80;71.30;;;;;;5076177;28;20257;-75
2022/12/30 08:06:06;;;;;;;36.65;21.52;;;15.00;72.80;;;;;;5073009;28;20267;-76
2022/12/30 08:08:33;;;;;;;40.17;21.40;;;15.30;71.20;;;;;;5055394;28;20296;-75
2022/12/30 08:11:00;;;;;;;36.88;21.90;;;15.50;69.70;;;;;;5070563;28;20183;-75
2022/12/30 08:13:26;;;;;;;35.83;22.38;;;15.70;70.40;;;;;;5075555;28;20236;-74
2022/12/30 08:15:51;;;;;;;38.65;23.45;;;15.90;70.30;;;;;;5072104;28;20672;-76
2022/12/30 08:18:17;;;;;;;36.50;21.92;;;16.00;67.20;;;;;;5072651;28;20596;-75
2022/12/30 08:20:43;;;;;;;38.50;23.73;;;16.00;68.80;;;;;;5070210;28;20193;-75
2022/12/30 08:23:09;;;;;;;47.15;24.48;;;16.10;68.10;;;;;;5074675;28;20731;-75
2022/12/30 08:25:35;;;;;;;36.25;22.25;;;16.00;66.60;;;;;;5073192;28;20170;-76
2022/12/30 08:28:01;;;;;;;38.63;22.73;;;16.00;68.80;;;;;;5077446;28;20171;-78
2022/12/30 08:30:26;;;;;;;43.97;25.08;;;16.20;69.00;;;;;;5077946;28;20194;-77
2022/12/30 08:32:52;;;;;;;36.83;22.70;;;16.40;67.80;;;;;;5078413;28;20205;-76
2022/12/30 08:35:18;;;;;;;39.17;24.48;;;16.60;67.30;;;;;;5079687;28;20199;-74
2022/12/30 08:37:44;;;;;;;43.33;25.38;;;16.90;67.20;;;;;;5074353;28;20213;-76
2022/12/30 08:40:10;;;;;;;37.88;25.45;;;17.00;64.90;;;;;;5078139;28;20224;-76
2022/12/30 08:42:36;;;;;;;40.88;26.10;;;17.20;66.10;;;;;;5083808;28;20260;-76
2022/12/30 08:45:04;;;;;;;41.58;25.17;;;17.30;65.90;;;;;;5085651;28;20174;-76
2022/12/30 08:47:30;;;;;;;35.58;24.00;;;17.50;66.40;;;;;;5077944;28;20179;-76
2022/12/30 08:49:56;;;;;;;46.80;24.35;;;17.70;65.30;;;;;;5076567;28;20373;-81
2022/12/30 08:52:22;;;;;;;32.15;23.20;;;17.70;65.40;;;;;;5081970;28;20178;-78
2022/12/30 08:54:47;;;;;;;38.67;24.20;;;17.90;65.10;;;;;;5074605;28;20189;-69
2022/12/30 08:57:13;;;;;;;37.92;24.67;;;18.10;64.70;;;;;;5074256;28;20186;-74
2022/12/30 08:59:39;;;;;;;36.47;22.38;;;18.30;64.20;;;;;;5078933;28;20223;-75
2022/12/30 09:02:05;;;;;;;33.58;24.20;;;18.40;64.20;;;;;;5080291;28;20361;-75
2022/12/30 09:04:31;;;;;;;37.72;24.40;;;18.60;63.60;;;;;;5062341;28;20190;-76
2022/12/30 09:06:57;;;;;;;34.95;23.23;;;18.80;63.90;;;;;;5086068;28;20224;-76
2022/12/30 09:09:22;;;;;;;40.30;25.13;;;19.00;63.50;;;;;;5082355;28;20194;-76
2022/12/30 09:11:48;;;;;;;47.17;25.83;;;19.10;61.10;;;;;;5078522;28;20187;-76
2022/12/30 09:14:16;;;;;;;41.72;26.23;;;19.10;62.60;;;;;;5084058;28;20264;-75
2022/12/30 09:16:42;;;;;;;45.33;27.25;;;19.20;61.30;;;;;;5065445;28;20182;-74
2022/12/30 09:19:08;;;;;;;39.88;25.75;;;19.30;61.30;;;;;;5078997;28;20214;-75
2022/12/30 09:21:34;;;;;;;38.10;24.58;;;19.50;61.70;;;;;;5086696;28;20187;-74
2022/12/30 09:24:00;;;;;;;40.25;25.30;;;19.80;61.70;;;;;;5076337;28;20186;-75
2022/12/30 09:26:27;;;;;;;43.67;25.08;;;20.10;61.30;;;;;;5071822;28;20215;-75
2022/12/30 09:28:53;;;;;;;32.45;22.08;;;20.60;60.80;;;;;;5077753;28;20246;-76
2022/12/30 09:31:20;;;;;;;37.20;23.73;;;21.00;60.70;;;;;;5086659;28;20190;-76
2022/12/30 09:33:46;;;;;;;36.38;21.65;;;21.40;60.10;;;;;;5086558;28;20166;-75
2022/12/30 09:36:12;;;;;;;36.95;23.15;;;21.70;59.30;;;;;;5090214;28;20282;-77
2022/12/30 09:38:38;;;;;;;34.17;23.92;;;22.00;59.30;;;;;;5071211;28;20297;-76
2022/12/30 09:41:07;;;;;;;35.00;23.13;;;22.20;58.90;;;;;;5072709;28;20182;-75
2022/12/30 09:44:07;;;;;;;30.77;21.35;;;22.40;58.10;;;;;;5072118;28;20207;-77
2022/12/30 09:46:51;;;;;;;32.30;22.02;;;22.70;58.10;;;;;;5049733;28;20213;-76
2022/12/30 09:49:38;;;;;;;30.98;20.98;;;23.00;57.20;;;;;;5074290;28;20190;-77
2022/12/30 09:52:13;;;;;;;30.27;21.40;;;23.20;56.40;;;;;;5055405;28;20194;-74
2022/12/30 09:54:44;;;;;;;32.95;21.02;;;23.30;57.20;;;;;;5079095;28;20186;-76
2022/12/30 09:57:30;;;;;;;32.65;22.02;;;23.40;57.20;;;;;;5078954;28;20190;-77
2022/12/30 10:00:02;;;;;;;30.90;21.05;;;23.30;55.30;;;;;;5070446;28;20241;-77
2022/12/30 10:02:30;;;;;;;31.52;21.05;;;23.10;56.70;;;;;;5073189;28;20258;-78
2022/12/30 10:04:59;;;;;;;30.05;20.52;;;23.10;57.40;;;;;;5078985;28;20198;-76
2022/12/30 10:07:55;;;;;;;29.25;21.00;;;23.10;57.00;;;;;;5073978;28;20576;-72
2022/12/30 10:10:33;;;;;;;31.55;22.73;;;23.20;56.40;;;;;;5086042;28;20190;-73
2022/12/30 10:13:06;;;;;;;30.70;19.85;;;23.50;57.50;;;;;;5078889;28;20185;-74
2022/12/30 10:15:42;;;;;;;28.17;20.90;;;23.60;57.10;;;;;;5073111;28;20266;-75
2022/12/30 10:18:14;;;;;;;34.65;22.17;;;23.80;56.30;;;;;;5053510;28;20194;-74
2022/12/30 10:21:14;;;;;;;29.27;21.58;;;24.00;56.50;;;;;;5068890;28;20190;-74
2022/12/30 10:23:55;;;;;;;27.92;20.52;;;24.20;55.20;;;;;;5076607;28;20175;-76
2022/12/30 10:26:37;;;;;;;33.28;20.95;;;24.40;56.10;;;;;;5074286;28;20260;-75
2022/12/30 10:29:18;;;;;;;31.63;21.92;;;24.50;55.60;;;;;;5080728;28;20178;-76
2022/12/30 10:31:46;;;;;;;33.10;22.15;;;24.70;55.60;;;;;;5085381;28;21082;-76
2022/12/30 10:34:15;;;;;;;33.03;23.02;;;25.00;55.00;;;;;;5074967;28;20174;-73
2022/12/30 10:37:13;;;;;;;27.77;20.05;;;25.00;52.00;;;;;;5082262;28;20201;-75
2022/12/30 10:39:46;;;;;;;28.88;21.92;;;24.90;53.60;;;;;;5006412;28;20267;-74
2022/12/30 10:42:48;;;;;;;33.72;22.70;;;24.80;53.20;;;;;;5005605;28;20289;-75
2022/12/30 10:45:43;;;;;;;31.08;21.52;;;24.50;52.60;;;;;;5001631;28;20489;-74
2022/12/30 10:48:49;;;;;;;33.17;22.05;;;24.60;55.70;;;;;;4999986;28;20188;-75
2022/12/30 10:51:17;;;;;;;37.15;22.70;;;24.80;52.60;;;;;;5007337;28;20192;-76
2022/12/30 10:53:48;;;;;;;32.50;21.10;;;25.00;52.50;;;;;;5007302;28;20249;-74
2022/12/30 10:56:34;;;;;;;29.98;21.65;;;25.10;54.80;;;;;;5001751;28;20744;-74
2022/12/30 10:59:04;;;;;;;34.15;21.98;;;25.30;53.70;;;;;;4998167;28;20223;-73
2022/12/30 11:01:34;;;;;;;27.70;19.73;;;25.40;54.20;;;;;;4999981;28;20193;-75
2022/12/30 11:04:00;;;;;;;27.98;20.30;;;25.60;54.50;;;;;;5002454;28;20635;-75
2022/12/30 11:06:27;;;;;;;29.65;20.77;;;25.70;53.50;;;;;;5003754;28;20287;-74
2022/12/30 11:09:14;;;;;;;28.05;20.63;;;26.00;53.50;;;;;;4996682;28;20185;-74
2022/12/30 11:14:44;;;;;;;28.30;19.50;;;26.40;52.00;;;;;;5000088;28;20251;-73
2022/12/30 11:17:16;;;;;;;30.33;20.83;;;26.60;52.40;;;;;;5034546;28;20222;-75
2022/12/30 11:19:53;;;;;;;25.67;18.75;;;26.80;52.60;;;;;;5081060;28;20214;-74
2022/12/30 11:22:20;;;;;;;27.17;19.67;;;27.00;53.10;;;;;;5081596;28;20229;-75
2022/12/30 11:25:00;;;;;;;34.45;20.70;;;27.10;52.20;;;;;;5085558;28;20285;-76
2022/12/30 11:27:36;;;;;;;26.83;20.13;;;27.10;50.10;;;;;;5095530;28;20188;-76
2022/12/30 11:30:02;;;;;;;24.80;18.20;;;26.80;52.20;;;;;;5085696;28;20186;-75
2022/12/30 11:32:28;;;;;;;31.42;19.30;;;26.70;50.80;;;;;;5075592;28;20186;-77
2022/12/30 11:34:53;;;;;;;27.05;20.13;;;26.60;52.40;;;;;;5058723;28;20187;-76
2022/12/30 11:37:32;;;;;;;26.73;18.63;;;26.60;50.40;;;;;;5096965;28;20178;-75
2022/12/30 11:40:23;;;;;;;25.05;18.63;;;26.50;51.80;;;;;;5074543;28;20224;-77
2022/12/30 11:43:15;;;;;;;24.58;18.00;;;26.30;51.20;;;;;;5073640;28;20183;-76
2022/12/30 11:46:02;;;;;;;32.17;18.73;;;26.30;51.10;;;;;;5077106;28;20707;-77
2022/12/30 11:48:50;;;;;;;27.85;17.83;;;26.30;48.40;;;;;;5074137;28;20265;-75
2022/12/30 11:51:32;;;;;;;28.40;19.75;;;26.30;49.20;;;;;;5077074;28;20206;-75
2022/12/30 11:54:20;;;;;;;28.73;19.58;;;25.80;48.00;;;;;;5072951;28;20197;-74
2022/12/30 11:56:53;;;;;;;24.92;16.83;;;25.60;48.80;;;;;;5078323;28;20344;-73
2022/12/30 11:59:25;;;;;;;29.15;19.08;;;25.40;50.90;;;;;;5074637;28;20742;-73
2022/12/30 12:01:58;;;;;;;25.77;19.00;;;25.10;51.30;;;;;;5078036;28;20764;-73
2022/12/30 12:04:35;;;;;;;24.92;18.95;;;24.90;52.00;;;;;;5082797;28;20178;-77
2022/12/30 12:07:02;;;;;;;30.05;19.90;;;24.60;49.90;;;;;;5076430;28;20257;-74
2022/12/30 12:09:43;;;;;;;26.67;18.58;;;24.20;53.20;;;;;;5075994;28;20243;-74
2022/12/30 12:12:16;;;;;;;25.30;17.73;;;24.00;51.10;;;;;;5072533;28;20256;-74
2022/12/30 12:15:16;;;;;;;24.98;16.50;;;24.00;54.20;;;;;;5075466;28;20205;-73
2022/12/30 12:17:57;;;;;;;22.13;15.98;;;24.10;50.60;;;;;;5074564;28;20170;-74
2022/12/30 12:20:36;;;;;;;21.90;15.80;;;24.20;54.00;;;;;;5075052;28;20253;-75
2022/12/30 12:23:26;;;;;;;22.35;16.48;;;24.40;52.50;;;;;;5077098;28;20193;-75
2022/12/30 12:26:12;;;;;;;29.00;17.45;;;24.60;54.00;;;;;;5076189;28;20229;-74
2022/12/30 12:28:41;;;;;;;23.08;16.73;;;24.80;49.90;;;;;;5076438;28;20507;-74
2022/12/30 12:31:15;;;;;;;21.90;16.20;;;25.00;49.70;;;;;;5075672;28;20244;-72
2022/12/30 12:33:57;;;;;;;22.13;15.50;;;25.10;49.90;;;;;;5072745;28;20185;-72
2022/12/30 12:36:40;;;;;;;18.77;14.40;;;25.30;52.00;;;;;;5072425;28;20208;-73
2022/12/30 12:39:11;;;;;;;21.40;14.15;;;25.40;50.50;;;;;;5075107;28;20309;-73
2022/12/30 12:41:59;;;;;;;17.75;14.23;;;25.40;51.60;;;;;;5074155;28;20179;-73
2022/12/30 12:44:57;;;;;;;17.92;13.52;;;25.20;51.10;;;;;;5073621;28;20272;-72
2022/12/30 12:47:31;;;;;;;14.98;12.52;;;25.00;49.70;;;;;;4991182;28;20577;-73
2022/12/30 12:50:20;;;;;;;22.58;13.82;;;24.70;49.60;;;;;;4994243;28;20675;-73
2022/12/30 12:53:18;;;;;;;15.00;11.77;;;24.70;49.80;;;;;;4965243;28;20193;-72
2022/12/30 12:56:02;;;;;;;18.17;13.60;;;24.60;50.90;;;;;;4965360;28;20289;-74
2022/12/30 12:59:03;;;;;;;15.80;12.85;;;24.50;50.10;;;;;;4966003;28;20197;-73
2022/12/30 13:02:00;;;;;;;16.67;12.52;;;24.40;50.30;;;;;;4905632;29;20208;-72
2022/12/30 13:05:08;;;;;;;13.43;11.68;;;24.20;50.70;;;;;;4905991;29;20691;-72
2022/12/30 13:08:20;;;;;;;17.33;11.57;;;24.20;50.80;;;;;;4832349;29;20851;-73
2022/12/30 13:10:59;;;;;;;16.02;11.38;;;24.10;50.80;;;;;;4781854;29;20258;-73
2022/12/30 13:13:47;;;;;;;16.13;10.73;;;24.00;51.10;;;;;;4778741;29;20212;-72
2022/12/30 13:16:19;;;;;;;11.45;10.07;;;23.90;52.50;;;;;;4776035;29;20209;-71
2022/12/30 13:18:47;;;;;;;14.65;11.00;;;23.70;51.60;;;;;;4782572;29;20231;-73
2022/12/30 13:21:18;;;;;;;14.98;10.13;;;23.60;52.10;;;;;;4780864;29;20196;-71
2022/12/30 13:24:05;;;;;;;11.50;9.15;;;23.60;51.60;;;;;;4779571;29;20687;-71
2022/12/30 13:26:33;;;;;;;10.55;9.35;;;23.60;51.50;;;;;;4794032;29;20212;-72
2022/12/30 13:29:01;;;;;;;10.63;8.38;;;23.50;52.00;;;;;;4795823;29;20226;-71
2022/12/30 13:31:58;;;;;;;13.02;8.45;;;23.40;53.10;;;;;;4828236;29;20214;-72
2022/12/30 13:34:50;;;;;;;12.02;8.48;;;23.20;52.40;;;;;;4829038;29;20211;-72
2022/12/30 13:37:24;;;;;;;11.55;8.20;;;22.80;52.30;;;;;;4829573;29;20271;-72
2022/12/30 13:40:27;;;;;;;9.57;8.43;;;22.40;53.10;;;;;;4902019;29;20219;-73
2022/12/30 13:43:20;;;;;;;11.05;9.27;;;22.00;53.10;;;;;;4883264;29;20192;-74
2022/12/30 13:45:47;;;;;;;12.68;8.80;;;21.60;54.30;;;;;;4992576;28;21734;-74
2022/12/30 13:48:19;;;;;;;9.02;8.18;;;21.30;54.80;;;;;;4978151;28;20185;-72
2022/12/30 13:50:46;;;;;;;22.00;14.00;;;21.20;56.90;;;;;;4974106;28;20781;-73